createdAt,value
2019-03-02T00:00:10.740Z,0
2019-03-02T00:01:21.700Z,0
2019-03-02T00:02:32.678Z,0
2019-03-02T00:03:43.176Z,0
2019-03-02T00:04:56.515Z,0
2019-03-02T00:06:08.360Z,0
2019-03-02T00:07:19.349Z,0
2019-03-02T00:08:32.418Z,0
2019-03-02T00:09:42.583Z,0
2019-03-02T00:10:53.072Z,0
2019-03-02T00:12:04.529Z,0
2019-03-02T00:13:15.780Z,0
2019-03-02T00:14:26.536Z,0
2019-03-02T00:15:38.055Z,0
2019-03-02T00:16:50.610Z,0
2019-03-02T00:18:02.480Z,0
2019-03-02T00:19:14.100Z,0
2019-03-02T00:20:25.400Z,0
2019-03-02T00:21:38.668Z,0
2019-03-02T00:22:50.904Z,0
2019-03-02T00:24:01.700Z,0
2019-03-02T00:25:11.627Z,0
2019-03-02T00:26:21.545Z,0
2019-03-02T00:27:31.468Z,0
2019-03-02T00:28:42.790Z,0
2019-03-02T00:29:53.934Z,0
2019-03-02T00:31:05.142Z,0
2019-03-02T00:32:16.941Z,0
2019-03-02T00:33:28.222Z,0
2019-03-02T00:34:39.032Z,0
2019-03-02T00:35:50.978Z,0
2019-03-02T00:37:03.365Z,0
2019-03-02T00:38:16.127Z,0
2019-03-02T00:39:27.018Z,0
2019-03-02T00:40:38.694Z,0
2019-03-02T00:41:49.526Z,0
2019-03-02T00:43:00.015Z,0
2019-03-02T00:44:11.061Z,0
2019-03-02T00:45:22.501Z,0
2019-03-02T00:46:32.168Z,0
2019-03-02T00:47:43.400Z,0
2019-03-02T00:48:54.183Z,0
2019-03-02T00:50:07.934Z,0
2019-03-02T00:51:18.456Z,0
2019-03-02T00:52:30.803Z,0
2019-03-02T00:53:42.790Z,0
2019-03-02T00:55:02.941Z,0
2019-03-02T00:56:15.221Z,0
2019-03-02T00:57:26.020Z,0
2019-03-02T00:58:37.011Z,0
2019-03-02T00:59:47.517Z,0
2019-03-02T01:01:00.944Z,0
2019-03-02T01:02:11.755Z,0
2019-03-02T01:03:22.960Z,0
2019-03-02T01:04:33.939Z,0
2019-03-02T01:05:44.424Z,0
2019-03-02T01:06:56.044Z,0
2019-03-02T01:08:07.140Z,0
2019-03-02T01:09:18.955Z,0
2019-03-02T01:10:29.936Z,0
2019-03-02T01:11:41.273Z,0
2019-03-02T01:12:52.415Z,0
2019-03-02T01:14:03.808Z,0
2019-03-02T01:15:15.675Z,0
2019-03-02T01:16:27.010Z,0
2019-03-02T01:17:38.804Z,0
2019-03-02T01:18:49.671Z,0
2019-03-02T01:20:01.022Z,0
2019-03-02T01:21:12.152Z,0
2019-03-02T01:22:24.445Z,0
2019-03-02T01:23:35.885Z,0
2019-03-02T01:24:46.240Z,0
2019-03-02T01:25:56.686Z,0
2019-03-02T01:27:07.785Z,0
2019-03-02T01:28:17.911Z,0
2019-03-02T01:29:27.655Z,0
2019-03-02T01:30:38.168Z,0
2019-03-02T01:31:48.967Z,0
2019-03-02T01:32:59.830Z,0
2019-03-02T01:34:13.281Z,0
2019-03-02T01:35:25.142Z,0
2019-03-02T01:36:37.137Z,0
2019-03-02T01:37:50.949Z,0
2019-03-02T01:39:02.044Z,0
2019-03-02T01:40:13.456Z,0
2019-03-02T01:41:24.985Z,0
2019-03-02T01:42:36.967Z,0
2019-03-02T01:43:48.499Z,0
2019-03-02T01:44:58.917Z,0
2019-03-02T01:46:10.680Z,0
2019-03-02T01:47:23.944Z,0
2019-03-02T01:48:35.093Z,0
2019-03-02T01:49:45.015Z,0
2019-03-02T01:50:56.097Z,0
2019-03-02T01:52:06.049Z,0
2019-03-02T01:53:17.144Z,0
2019-03-02T01:54:28.600Z,0
2019-03-02T01:55:39.309Z,0
2019-03-02T01:56:49.854Z,0
2019-03-02T01:58:00.398Z,0
2019-03-02T01:59:11.274Z,0
2019-03-02T02:00:21.761Z,0
2019-03-02T02:01:32.984Z,0
2019-03-02T02:02:44.332Z,0
2019-03-02T02:03:55.198Z,0
2019-03-02T02:05:05.596Z,0
2019-03-02T02:06:15.983Z,0
2019-03-02T02:07:26.520Z,0
2019-03-02T02:08:37.074Z,0
2019-03-02T02:09:47.843Z,0
2019-03-02T02:10:57.756Z,0
2019-03-02T02:12:07.669Z,0
2019-03-02T02:13:17.591Z,0
2019-03-02T02:14:27.514Z,0
2019-03-02T02:15:37.614Z,0
2019-03-02T02:16:49.135Z,0
2019-03-02T02:18:00.250Z,0
2019-03-02T02:19:10.542Z,0
2019-03-02T02:20:21.945Z,0
2019-03-02T02:21:33.884Z,0
2019-03-02T02:22:45.187Z,0
2019-03-02T02:23:57.118Z,0
2019-03-02T02:25:08.822Z,0
2019-03-02T02:26:19.717Z,0
2019-03-02T02:27:30.317Z,0
2019-03-02T02:28:40.656Z,0
2019-03-02T02:29:51.507Z,0
2019-03-02T02:31:10.530Z,0
2019-03-02T02:32:28.250Z,0
2019-03-02T02:33:45.135Z,0
2019-03-02T02:35:02.757Z,0
2019-03-02T02:36:20.594Z,0
2019-03-02T02:37:38.846Z,0
2019-03-02T02:38:56.580Z,0
2019-03-02T02:40:12.440Z,0
2019-03-02T02:41:30.033Z,0
2019-03-02T02:42:46.886Z,0
2019-03-02T02:44:04.025Z,0
2019-03-02T02:45:21.903Z,0
2019-03-02T02:46:39.445Z,0
2019-03-02T02:47:59.343Z,0
2019-03-02T02:49:16.395Z,0
2019-03-02T02:50:36.375Z,0
2019-03-02T02:51:53.353Z,0
2019-03-02T02:53:11.248Z,0
2019-03-02T02:54:27.528Z,0
2019-03-02T02:55:43.624Z,0
2019-03-02T02:56:58.573Z,0
2019-03-02T02:58:12.460Z,0
2019-03-02T02:59:26.897Z,0
2019-03-02T03:00:38.193Z,0
2019-03-02T03:01:47.942Z,0
2019-03-02T03:02:57.862Z,0
2019-03-02T03:04:08.169Z,0
2019-03-02T03:05:22.585Z,0
2019-03-02T03:06:37.614Z,0
2019-03-02T03:07:58.433Z,0
2019-03-02T03:09:16.473Z,0
2019-03-02T03:10:32.935Z,0
2019-03-02T03:11:51.011Z,0
2019-03-02T03:13:07.067Z,0
2019-03-02T03:14:22.472Z,0
2019-03-02T03:15:41.437Z,0
2019-03-02T03:16:57.827Z,0
2019-03-02T03:18:15.469Z,0
2019-03-02T03:19:32.876Z,0
2019-03-02T03:20:50.882Z,0
2019-03-02T03:22:09.135Z,0
2019-03-02T03:23:24.745Z,0
2019-03-02T03:24:42.612Z,0
2019-03-02T03:26:01.277Z,0
2019-03-02T03:27:15.942Z,0
2019-03-02T03:28:33.146Z,0
2019-03-02T03:29:49.276Z,0
2019-03-02T03:30:59.712Z,0
2019-03-02T03:32:18.775Z,0
2019-03-02T03:33:41.253Z,0
2019-03-02T03:34:55.139Z,0
2019-03-02T03:36:05.097Z,0
2019-03-02T03:37:18.247Z,0
2019-03-02T03:38:34.290Z,0
2019-03-02T03:39:48.999Z,0
2019-03-02T03:41:05.180Z,0
2019-03-02T03:42:25.047Z,0
2019-03-02T03:43:44.558Z,0
2019-03-02T03:44:54.279Z,0
2019-03-02T03:46:07.516Z,0
2019-03-02T03:47:17.440Z,0
2019-03-02T03:48:27.401Z,0
2019-03-02T03:49:41.595Z,0
2019-03-02T03:50:57.438Z,0
2019-03-02T03:52:15.819Z,0
2019-03-02T03:53:34.354Z,0
2019-03-02T03:54:50.290Z,0
2019-03-02T03:56:08.497Z,0
2019-03-02T03:57:24.269Z,0
2019-03-02T03:58:39.774Z,0
2019-03-02T03:59:53.341Z,0
2019-03-02T04:01:16.682Z,0
2019-03-02T04:02:31.086Z,0
2019-03-02T04:03:53.491Z,0
2019-03-02T04:05:12.858Z,0
2019-03-02T04:06:29.595Z,0
2019-03-02T04:07:39.285Z,0
2019-03-02T04:08:56.680Z,0
2019-03-02T04:10:11.067Z,0
2019-03-02T04:11:21.004Z,0
2019-03-02T04:12:31.749Z,0
2019-03-02T04:13:51.403Z,0
2019-03-02T04:15:08.319Z,0
2019-03-02T04:16:25.430Z,0
2019-03-02T04:17:41.784Z,0
2019-03-02T04:19:00.547Z,0
2019-03-02T04:20:19.323Z,0
2019-03-02T04:21:34.759Z,0
2019-03-02T04:22:49.560Z,0
2019-03-02T04:24:08.291Z,0
2019-03-02T04:25:24.733Z,0
2019-03-02T04:26:43.514Z,0
2019-03-02T04:28:00.847Z,0
2019-03-02T04:29:16.641Z,0
2019-03-02T04:30:37.884Z,0
2019-03-02T04:31:55.393Z,0
2019-03-02T04:33:12.565Z,0
2019-03-02T04:34:27.955Z,0
2019-03-02T04:35:41.196Z,0
2019-03-02T04:36:54.768Z,0
2019-03-02T04:38:08.025Z,0
2019-03-02T04:39:21.087Z,0
2019-03-02T04:40:36.018Z,0
2019-03-02T04:41:46.838Z,0
2019-03-02T04:42:57.573Z,0
2019-03-02T04:44:07.486Z,0
2019-03-02T04:45:17.401Z,0
2019-03-02T04:46:27.470Z,0
2019-03-02T04:47:37.384Z,0
2019-03-02T04:48:47.054Z,0
2019-03-02T04:49:58.653Z,0
2019-03-02T04:51:09.860Z,0
2019-03-02T04:52:21.751Z,0
2019-03-02T04:53:32.279Z,0
2019-03-02T04:54:44.905Z,0
2019-03-02T04:55:55.932Z,0
2019-03-02T04:57:06.966Z,0
2019-03-02T04:58:19.271Z,0
2019-03-02T04:59:30.203Z,0
2019-03-02T05:00:40.290Z,0
2019-03-02T05:01:53.283Z,0
2019-03-02T05:03:03.338Z,0
2019-03-02T05:04:13.400Z,0
2019-03-02T05:05:23.324Z,0
2019-03-02T05:06:32.985Z,0
2019-03-02T05:07:42.916Z,0
2019-03-02T05:08:52.837Z,0
2019-03-02T05:10:02.877Z,0
2019-03-02T05:11:12.789Z,0
2019-03-02T05:12:22.752Z,0
2019-03-02T05:13:35.660Z,0
2019-03-02T05:14:47.416Z,0
2019-03-02T05:15:59.576Z,0
2019-03-02T05:17:12.213Z,0
2019-03-02T05:18:25.333Z,0
2019-03-02T05:19:36.987Z,0
2019-03-02T05:20:49.016Z,0
2019-03-02T05:21:59.076Z,0
2019-03-02T05:23:08.992Z,0
2019-03-02T05:24:18.913Z,0
2019-03-02T05:25:28.836Z,0
2019-03-02T05:26:38.831Z,0
2019-03-02T05:27:48.740Z,0
2019-03-02T05:28:58.656Z,0
2019-03-02T05:30:08.574Z,0
2019-03-02T05:31:18.742Z,0
2019-03-02T05:32:28.710Z,0
2019-03-02T05:33:38.633Z,0
2019-03-02T05:34:48.313Z,0
2019-03-02T05:35:58.925Z,0
2019-03-02T05:37:10.260Z,4
2019-03-02T05:38:22.506Z,0
2019-03-02T05:39:32.423Z,0
2019-03-02T05:40:42.333Z,4
2019-03-02T05:41:53.191Z,4
2019-03-02T05:43:03.229Z,4
2019-03-02T05:44:13.308Z,4
2019-03-02T05:45:26.346Z,4
2019-03-02T05:46:36.278Z,8
2019-03-02T05:47:46.203Z,12
2019-03-02T05:48:56.111Z,8
2019-03-02T05:50:06.075Z,12
2019-03-02T05:51:15.991Z,16
2019-03-02T05:52:26.020Z,20
2019-03-02T05:53:37.498Z,20
2019-03-02T05:54:48.761Z,24
2019-03-02T05:56:01.085Z,32
2019-03-02T05:57:12.371Z,36
2019-03-02T05:58:24.030Z,44
2019-03-02T05:59:35.031Z,48
2019-03-02T06:00:46.133Z,56
2019-03-02T06:01:56.138Z,64
2019-03-02T06:03:06.049Z,76
2019-03-02T06:04:18.737Z,88
2019-03-02T06:05:29.722Z,104
2019-03-02T06:06:39.639Z,116
2019-03-02T06:07:49.711Z,128
2019-03-02T06:09:01.528Z,140
2019-03-02T06:10:13.557Z,160
2019-03-02T06:11:23.727Z,176
2019-03-02T06:12:33.449Z,192
2019-03-02T06:13:43.414Z,208
2019-03-02T06:14:53.332Z,228
2019-03-02T06:16:03.253Z,248
2019-03-02T06:17:13.169Z,264
2019-03-02T06:18:23.092Z,284
2019-03-02T06:19:33.064Z,308
2019-03-02T06:20:44.688Z,328
2019-03-02T06:21:54.671Z,356
2019-03-02T06:23:04.587Z,380
2019-03-02T06:24:15.445Z,408
2019-03-02T06:25:28.620Z,440
2019-03-02T06:26:40.373Z,472
2019-03-02T06:27:54.339Z,512
2019-03-02T06:29:05.108Z,552
2019-03-02T06:30:15.653Z,592
2019-03-02T06:31:26.451Z,636
2019-03-02T06:32:38.380Z,692
2019-03-02T06:33:51.442Z,744
2019-03-02T06:35:03.168Z,800
2019-03-02T06:36:16.215Z,860
2019-03-02T06:37:27.295Z,924
2019-03-02T06:38:39.352Z,984
2019-03-02T06:39:51.678Z,1040
2019-03-02T06:41:05.173Z,1100
2019-03-02T06:42:17.114Z,1156
2019-03-02T06:43:29.140Z,1208
2019-03-02T06:44:41.359Z,1268
2019-03-02T06:45:51.559Z,1332
2019-03-02T06:47:03.138Z,1392
2019-03-02T06:48:16.856Z,1448
2019-03-02T06:49:28.301Z,1508
2019-03-02T06:50:40.507Z,1568
2019-03-02T06:51:52.283Z,1620
2019-03-02T06:53:06.333Z,1668
2019-03-02T06:54:21.948Z,1716
2019-03-02T06:55:32.685Z,1764
2019-03-02T06:56:44.538Z,1812
2019-03-02T06:57:57.413Z,1864
2019-03-02T06:59:09.121Z,1916
2019-03-02T07:00:21.235Z,1972
2019-03-02T07:01:32.232Z,2028
2019-03-02T07:02:42.963Z,2084
2019-03-02T07:03:53.895Z,2140
2019-03-02T07:05:07.398Z,2204
2019-03-02T07:06:19.749Z,2272
2019-03-02T07:07:30.013Z,2332
2019-03-02T07:08:41.871Z,2392
2019-03-02T07:09:52.483Z,2432
2019-03-02T07:11:05.164Z,2468
2019-03-02T07:12:16.686Z,2508
2019-03-02T07:13:28.559Z,2544
2019-03-02T07:14:39.576Z,2576
2019-03-02T07:15:51.936Z,2600
2019-03-02T07:17:03.209Z,2620
2019-03-02T07:18:15.098Z,2640
2019-03-02T07:19:25.010Z,2664
2019-03-02T07:20:35.426Z,2752
2019-03-02T07:21:49.570Z,2768
2019-03-02T07:23:00.426Z,2800
2019-03-02T07:24:10.343Z,3012
2019-03-02T07:25:21.898Z,3064
2019-03-02T07:26:31.565Z,3108
2019-03-02T07:27:41.475Z,3136
2019-03-02T07:28:51.485Z,3116
2019-03-02T07:30:02.279Z,3164
2019-03-02T07:31:12.195Z,3056
2019-03-02T07:32:22.719Z,3288
2019-03-02T07:33:32.635Z,3396
2019-03-02T07:34:48.169Z,3492
2019-03-02T07:36:00.477Z,3548
2019-03-02T07:37:14.008Z,3652
2019-03-02T07:38:27.346Z,3728
2019-03-02T07:39:41.435Z,3888
2019-03-02T07:40:52.786Z,3968
2019-03-02T07:42:05.216Z,4108
2019-03-02T07:43:17.029Z,4320
2019-03-02T07:44:29.534Z,4620
2019-03-02T07:45:42.257Z,4856
2019-03-02T07:46:55.291Z,5080
2019-03-02T07:48:07.662Z,5264
2019-03-02T07:49:20.047Z,5524
2019-03-02T07:50:34.597Z,5808
2019-03-02T07:51:46.314Z,5972
2019-03-02T07:52:57.979Z,6160
2019-03-02T07:54:10.859Z,6400
2019-03-02T07:55:25.070Z,6356
2019-03-02T07:56:37.324Z,6400
2019-03-02T07:57:48.560Z,6388
2019-03-02T07:58:59.761Z,6132
2019-03-02T08:00:12.912Z,5912
2019-03-02T08:01:23.921Z,5996
2019-03-02T08:02:36.896Z,6212
2019-03-02T08:03:46.820Z,6476
2019-03-02T08:04:56.733Z,6776
2019-03-02T08:06:08.560Z,7040
2019-03-02T08:07:18.497Z,7236
2019-03-02T08:08:28.518Z,7504
2019-03-02T08:09:38.439Z,7904
2019-03-02T08:10:48.351Z,8156
2019-03-02T08:12:00.258Z,8308
2019-03-02T08:13:10.318Z,8276
2019-03-02T08:14:20.988Z,8196
2019-03-02T08:15:32.795Z,8144
2019-03-02T08:16:45.011Z,8000
2019-03-02T08:17:56.465Z,7640
2019-03-02T08:19:08.778Z,7236
2019-03-02T08:20:20.633Z,6960
2019-03-02T08:21:35.759Z,6736
2019-03-02T08:22:48.746Z,6556
2019-03-02T08:23:58.669Z,6372
2019-03-02T08:25:08.612Z,6256
2019-03-02T08:26:18.527Z,6208
2019-03-02T08:27:34.607Z,6252
2019-03-02T08:28:48.308Z,6360
2019-03-02T08:30:01.946Z,6544
2019-03-02T08:31:15.760Z,6728
2019-03-02T08:32:28.761Z,7000
2019-03-02T08:33:50.422Z,7272
2019-03-02T08:35:00.347Z,7412
2019-03-02T08:36:13.007Z,7424
2019-03-02T08:37:26.619Z,7284
2019-03-02T08:38:38.154Z,7232
2019-03-02T08:39:51.555Z,7272
2019-03-02T08:41:05.316Z,7312
2019-03-02T08:42:17.109Z,7388
2019-03-02T08:43:27.033Z,7420
2019-03-02T08:44:37.480Z,7364
2019-03-02T08:45:47.415Z,7404
2019-03-02T08:46:57.329Z,7516
2019-03-02T08:48:07.321Z,7592
2019-03-02T08:49:17.242Z,7508
2019-03-02T08:50:27.175Z,7528
2019-03-02T08:51:37.119Z,7888
2019-03-02T08:52:47.036Z,7948
2019-03-02T08:53:57.055Z,7928
2019-03-02T08:55:06.976Z,8004
2019-03-02T08:56:19.108Z,8500
2019-03-02T08:57:30.419Z,8296
2019-03-02T08:58:40.088Z,7984
2019-03-02T08:59:50.129Z,8156
2019-03-02T09:01:00.043Z,7644
2019-03-02T09:02:09.963Z,7104
2019-03-02T09:03:19.901Z,6576
2019-03-02T09:04:29.828Z,6268
2019-03-02T09:05:58.023Z,6184
2019-03-02T09:07:11.371Z,6220
2019-03-02T09:08:21.493Z,6144
2019-03-02T09:09:31.165Z,6224
2019-03-02T09:10:41.904Z,6888
2019-03-02T09:11:53.513Z,7552
2019-03-02T09:13:06.751Z,8368
2019-03-02T09:14:19.524Z,9480
2019-03-02T09:15:35.033Z,9832
2019-03-02T09:16:47.292Z,10360
2019-03-02T09:18:02.840Z,9844
2019-03-02T09:19:12.759Z,9996
2019-03-02T09:20:24.500Z,10256
2019-03-02T09:21:34.445Z,9672
2019-03-02T09:22:44.366Z,8920
2019-03-02T09:23:56.523Z,9240
2019-03-02T09:25:06.486Z,9232
2019-03-02T09:26:17.406Z,8600
2019-03-02T09:27:27.834Z,9172
2019-03-02T09:28:37.564Z,9340
2019-03-02T09:29:47.488Z,9340
2019-03-02T09:31:04.077Z,9184
2019-03-02T09:32:16.609Z,8580
2019-03-02T09:33:31.318Z,8316
2019-03-02T09:34:45.353Z,8140
2019-03-02T09:36:02.171Z,8008
2019-03-02T09:37:14.315Z,8228
2019-03-02T09:38:28.052Z,8780
2019-03-02T09:39:42.197Z,9212
2019-03-02T09:40:53.967Z,9108
2019-03-02T09:42:06.371Z,9340
2019-03-02T09:43:18.718Z,9660
2019-03-02T09:44:28.673Z,10432
2019-03-02T09:45:41.288Z,11256
2019-03-02T09:46:52.473Z,11132
2019-03-02T09:48:02.449Z,10840
2019-03-02T09:49:14.529Z,10768
2019-03-02T09:50:26.534Z,10316
2019-03-02T09:51:36.461Z,10032
2019-03-02T09:52:48.169Z,9664
2019-03-02T09:53:58.100Z,9392
2019-03-02T09:55:08.067Z,9224
2019-03-02T09:56:18.510Z,8768
2019-03-02T09:57:30.054Z,8528
2019-03-02T09:58:39.831Z,8812
2019-03-02T09:59:52.747Z,9588
2019-03-02T10:01:09.326Z,10136
2019-03-02T10:02:21.708Z,10288
2019-03-02T10:03:34.845Z,10400
2019-03-02T10:04:46.637Z,10424
2019-03-02T10:05:57.246Z,10388
2019-03-02T10:07:09.310Z,10416
2019-03-02T10:08:20.648Z,10628
2019-03-02T10:09:33.863Z,10752
2019-03-02T10:10:43.806Z,10704
2019-03-02T10:11:53.736Z,10836
2019-03-02T10:13:03.793Z,10776
2019-03-02T10:14:15.788Z,10796
2019-03-02T10:15:31.583Z,10564
2019-03-02T10:16:41.536Z,10352
2019-03-02T10:17:51.224Z,10168
2019-03-02T10:19:01.198Z,10016
2019-03-02T10:20:12.410Z,9800
2019-03-02T10:21:22.331Z,9580
2019-03-02T10:22:32.247Z,9560
2019-03-02T10:23:46.967Z,9724
2019-03-02T10:25:00.059Z,10016
2019-03-02T10:26:12.419Z,10388
2019-03-02T10:27:25.944Z,10800
2019-03-02T10:28:39.031Z,11188
2019-03-02T10:29:53.228Z,11584
2019-03-02T10:31:06.042Z,12580
2019-03-02T10:32:16.179Z,13224
2019-03-02T10:33:28.603Z,13524
2019-03-02T10:34:44.540Z,13944
2019-03-02T10:35:58.210Z,14324
2019-03-02T10:37:11.911Z,14284
2019-03-02T10:38:25.878Z,13852
2019-03-02T10:39:37.579Z,13708
2019-03-02T10:40:49.912Z,13216
2019-03-02T10:42:02.802Z,13324
2019-03-02T10:43:16.517Z,14216
2019-03-02T10:44:28.537Z,15392
2019-03-02T10:45:38.586Z,16588
2019-03-02T10:46:48.514Z,17024
2019-03-02T10:47:59.012Z,15972
2019-03-02T10:49:13.227Z,15328
2019-03-02T10:50:25.850Z,14364
2019-03-02T10:51:39.988Z,13676
2019-03-02T10:52:53.857Z,13140
2019-03-02T10:54:06.791Z,12712
2019-03-02T10:55:19.280Z,12520
2019-03-02T10:56:32.944Z,12576
2019-03-02T10:57:44.227Z,12820
2019-03-02T10:58:54.150Z,12744
2019-03-02T11:00:03.830Z,12984
2019-03-02T11:01:14.558Z,13268
2019-03-02T11:02:28.312Z,12928
2019-03-02T11:03:39.061Z,12344
2019-03-02T11:04:51.881Z,11912
2019-03-02T11:06:04.304Z,10892
2019-03-02T11:07:17.743Z,10268
2019-03-02T11:08:30.410Z,11420
2019-03-02T11:09:44.689Z,15592
2019-03-02T11:10:57.929Z,19200
2019-03-02T11:12:11.702Z,24864
2019-03-02T11:13:24.152Z,19392
2019-03-02T11:14:36.864Z,13228
2019-03-02T11:15:52.327Z,11876
2019-03-02T11:17:04.006Z,12424
2019-03-02T11:18:13.942Z,12624
2019-03-02T11:19:23.862Z,13796
2019-03-02T11:20:33.797Z,14348
2019-03-02T11:21:43.719Z,25920
2019-03-02T11:22:53.144Z,28384
2019-03-02T11:24:04.771Z,27520
2019-03-02T11:25:14.688Z,43232
2019-03-02T11:26:24.716Z,43168
2019-03-02T11:27:34.637Z,55680
2019-03-02T11:28:44.566Z,54112
2019-03-02T11:29:58.205Z,52384
2019-03-02T11:31:08.131Z,26176
2019-03-02T11:32:22.952Z,23808
2019-03-02T11:33:35.944Z,17216
2019-03-02T11:34:45.874Z,17504
2019-03-02T11:35:55.803Z,22112
2019-03-02T11:37:05.724Z,17792
2019-03-02T11:38:15.651Z,14840
2019-03-02T11:39:25.593Z,13664
2019-03-02T11:40:37.965Z,13624
2019-03-02T11:41:47.888Z,14256
2019-03-02T11:42:57.814Z,14840
2019-03-02T11:44:09.569Z,15128
2019-03-02T11:45:19.240Z,15284
2019-03-02T11:46:29.165Z,15232
2019-03-02T11:47:41.467Z,15448
2019-03-02T11:49:01.967Z,15644
2019-03-02T11:50:14.267Z,16200
2019-03-02T11:51:27.079Z,18048
2019-03-02T11:52:41.045Z,16896
2019-03-02T11:53:54.674Z,18432
2019-03-02T11:55:09.154Z,24064
2019-03-02T11:56:29.899Z,21248
2019-03-02T11:57:39.834Z,23136
2019-03-02T11:58:49.755Z,18208
2019-03-02T12:00:00.645Z,14728
2019-03-02T12:01:10.566Z,14328
2019-03-02T12:02:26.368Z,13900
2019-03-02T12:03:41.600Z,13984
2019-03-02T12:04:54.803Z,13796
2019-03-02T12:06:12.439Z,13588
2019-03-02T12:07:22.116Z,14212
2019-03-02T12:08:32.050Z,14304
2019-03-02T12:09:41.968Z,16376
2019-03-02T12:10:51.657Z,14872
2019-03-02T12:12:01.685Z,14152
2019-03-02T12:13:11.617Z,13324
2019-03-02T12:14:21.538Z,13020
2019-03-02T12:15:32.252Z,12412
2019-03-02T12:16:43.107Z,12328
2019-03-02T12:17:55.238Z,12136
2019-03-02T12:19:07.560Z,12052
2019-03-02T12:20:19.156Z,11940
2019-03-02T12:21:29.347Z,11852
2019-03-02T12:22:42.560Z,11916
2019-03-02T12:23:52.582Z,12156
2019-03-02T12:25:05.687Z,12416
2019-03-02T12:26:18.264Z,12648
2019-03-02T12:27:29.582Z,12608
2019-03-02T12:28:42.613Z,12652
2019-03-02T12:29:54.539Z,12784
2019-03-02T12:31:04.466Z,12752
2019-03-02T12:32:15.907Z,12708
2019-03-02T12:33:27.977Z,12820
2019-03-02T12:34:41.579Z,12740
2019-03-02T12:35:51.608Z,12744
2019-03-02T12:37:01.501Z,12396
2019-03-02T12:38:17.652Z,11780
2019-03-02T12:39:31.289Z,11068
2019-03-02T12:40:45.084Z,10292
2019-03-02T12:41:57.542Z,9788
2019-03-02T12:43:12.425Z,9076
2019-03-02T12:44:26.275Z,8612
2019-03-02T12:45:38.670Z,8436
2019-03-02T12:46:51.749Z,8460
2019-03-02T12:48:07.425Z,8324
2019-03-02T12:49:18.350Z,8344
2019-03-02T12:50:30.658Z,8452
2019-03-02T12:51:44.479Z,8524
2019-03-02T12:52:56.619Z,8728
2019-03-02T12:54:11.532Z,9012
2019-03-02T12:55:25.534Z,8932
2019-03-02T12:56:37.805Z,8716
2019-03-02T12:57:52.764Z,8844
2019-03-02T12:59:08.780Z,9128
2019-03-02T13:00:18.706Z,9088
2019-03-02T13:01:28.375Z,9400
2019-03-02T13:02:47.878Z,9640
2019-03-02T13:03:58.961Z,9612
2019-03-02T13:05:08.911Z,9864
2019-03-02T13:06:18.834Z,10260
2019-03-02T13:07:28.762Z,10660
2019-03-02T13:08:39.802Z,11436
2019-03-02T13:09:49.725Z,13256
2019-03-02T13:11:00.566Z,16172
2019-03-02T13:12:14.687Z,14728
2019-03-02T13:13:28.021Z,15424
2019-03-02T13:14:41.250Z,19872
2019-03-02T13:15:54.349Z,20352
2019-03-02T13:17:08.460Z,20032
2019-03-02T13:18:21.394Z,16864
2019-03-02T13:19:34.044Z,17792
2019-03-02T13:20:46.827Z,18336
2019-03-02T13:21:58.963Z,21472
2019-03-02T13:23:11.543Z,21696
2019-03-02T13:24:27.455Z,20096
2019-03-02T13:25:41.423Z,18848
2019-03-02T13:26:54.392Z,16832
2019-03-02T13:28:09.967Z,16544
2019-03-02T13:29:21.272Z,14468
2019-03-02T13:30:34.485Z,12604
2019-03-02T13:31:48.626Z,12128
2019-03-02T13:33:00.899Z,12000
2019-03-02T13:34:14.124Z,12180
2019-03-02T13:35:28.425Z,12324
2019-03-02T13:36:39.901Z,12592
2019-03-02T13:37:57.133Z,12432
2019-03-02T13:39:14.301Z,11952
2019-03-02T13:40:29.690Z,11196
2019-03-02T13:41:42.876Z,10444
2019-03-02T13:43:04.232Z,9728
2019-03-02T13:44:14.534Z,8812
2019-03-02T13:45:26.442Z,7840
2019-03-02T13:46:39.910Z,7128
2019-03-02T13:47:53.664Z,6840
2019-03-02T13:49:06.640Z,6892
2019-03-02T13:50:20.275Z,6668
2019-03-02T13:51:37.269Z,6508
2019-03-02T13:52:50.837Z,6548
2019-03-02T13:54:07.860Z,6752
2019-03-02T13:55:20.567Z,6600
2019-03-02T13:56:34.941Z,6040
2019-03-02T13:57:48.663Z,5464
2019-03-02T13:59:01.914Z,5048
2019-03-02T14:00:15.155Z,4788
2019-03-02T14:01:30.260Z,4628
2019-03-02T14:02:45.112Z,4664
2019-03-02T14:03:58.448Z,4748
2019-03-02T14:05:14.055Z,4700
2019-03-02T14:06:26.461Z,4584
2019-03-02T14:07:38.524Z,4496
2019-03-02T14:08:50.780Z,4444
2019-03-02T14:10:00.700Z,4436
2019-03-02T14:11:10.637Z,4460
2019-03-02T14:12:24.804Z,4504
2019-03-02T14:13:37.817Z,4544
2019-03-02T14:14:49.729Z,4588
2019-03-02T14:16:04.448Z,4648
2019-03-02T14:17:16.731Z,4692
2019-03-02T14:18:31.135Z,4752
2019-03-02T14:19:48.349Z,4856
2019-03-02T14:21:01.190Z,4988
2019-03-02T14:22:14.772Z,5104
2019-03-02T14:23:31.998Z,5192
2019-03-02T14:24:49.513Z,5164
2019-03-02T14:26:05.181Z,5036
2019-03-02T14:27:14.873Z,4888
2019-03-02T14:28:24.801Z,4720
2019-03-02T14:29:38.320Z,4540
2019-03-02T14:30:52.455Z,4368
2019-03-02T14:32:04.882Z,4192
2019-03-02T14:33:17.798Z,4008
2019-03-02T14:34:27.723Z,3832
2019-03-02T14:35:39.697Z,3664
2019-03-02T14:36:49.627Z,3520
2019-03-02T14:37:59.548Z,3404
2019-03-02T14:39:09.971Z,3296
2019-03-02T14:40:21.871Z,3188
2019-03-02T14:41:36.068Z,3096
2019-03-02T14:42:48.268Z,3012
2019-03-02T14:44:02.142Z,2932
2019-03-02T14:45:14.668Z,2872
2019-03-02T14:46:28.477Z,2852
2019-03-02T14:47:41.499Z,2872
2019-03-02T14:48:54.244Z,2896
2019-03-02T14:50:10.694Z,2940
2019-03-02T14:51:23.179Z,2964
2019-03-02T14:52:38.156Z,2956
2019-03-02T14:53:50.008Z,2924
2019-03-02T14:55:01.795Z,2872
2019-03-02T14:56:16.323Z,2816
2019-03-02T14:57:29.611Z,2740
2019-03-02T14:58:42.624Z,2660
2019-03-02T14:59:55.179Z,2580
2019-03-02T15:01:07.765Z,2504
2019-03-02T15:02:21.525Z,2436
2019-03-02T15:03:36.477Z,2372
2019-03-02T15:04:50.140Z,2312
2019-03-02T15:06:12.195Z,2256
2019-03-02T15:07:27.259Z,2196
2019-03-02T15:08:42.321Z,2144
2019-03-02T15:09:54.559Z,2112
2019-03-02T15:11:08.391Z,2100
2019-03-02T15:12:20.975Z,2096
2019-03-02T15:13:34.422Z,2120
2019-03-02T15:14:47.440Z,2156
2019-03-02T15:16:01.346Z,2172
2019-03-02T15:17:14.771Z,2160
2019-03-02T15:18:32.574Z,2120
2019-03-02T15:19:58.916Z,2060
2019-03-02T15:21:11.426Z,2020
2019-03-02T15:22:26.785Z,2000
2019-03-02T15:23:41.897Z,1976
2019-03-02T15:24:58.267Z,1952
2019-03-02T15:26:11.281Z,1920
2019-03-02T15:27:24.831Z,1876
2019-03-02T15:28:42.235Z,1828
2019-03-02T15:29:55.213Z,1760
2019-03-02T15:31:09.093Z,1708
2019-03-02T15:32:22.943Z,1648
2019-03-02T15:33:37.701Z,1588
2019-03-02T15:35:00.541Z,1524
2019-03-02T15:36:13.626Z,1468
2019-03-02T15:37:26.757Z,1412
2019-03-02T15:38:40.020Z,1360
2019-03-02T15:39:55.964Z,1296
2019-03-02T15:41:09.120Z,1236
2019-03-02T15:42:23.754Z,1164
2019-03-02T15:43:37.241Z,1112
2019-03-02T15:44:53.293Z,1048
2019-03-02T15:46:06.225Z,992
2019-03-02T15:47:18.855Z,948
2019-03-02T15:48:33.941Z,896
2019-03-02T15:49:47.561Z,852
2019-03-02T15:51:01.538Z,820
2019-03-02T15:52:14.864Z,792
2019-03-02T15:53:27.579Z,772
2019-03-02T15:54:40.158Z,752
2019-03-02T15:55:54.872Z,716
2019-03-02T15:57:11.634Z,704
2019-03-02T15:58:25.776Z,732
2019-03-02T15:59:42.804Z,728
2019-03-02T16:00:56.930Z,712
2019-03-02T16:02:09.212Z,712
2019-03-02T16:03:24.203Z,732
2019-03-02T16:04:39.101Z,732
2019-03-02T16:05:54.884Z,736
2019-03-02T16:07:06.992Z,732
2019-03-02T16:08:20.532Z,736
2019-03-02T16:09:37.890Z,720
2019-03-02T16:10:51.420Z,696
2019-03-02T16:12:04.051Z,672
2019-03-02T16:13:20.623Z,636
2019-03-02T16:14:36.233Z,600
2019-03-02T16:15:52.294Z,540
2019-03-02T16:17:06.113Z,516
2019-03-02T16:18:19.085Z,496
2019-03-02T16:19:36.018Z,464
2019-03-02T16:20:51.422Z,440
2019-03-02T16:22:04.678Z,420
2019-03-02T16:23:17.042Z,392
2019-03-02T16:24:30.828Z,364
2019-03-02T16:25:44.950Z,332
2019-03-02T16:26:59.736Z,300
2019-03-02T16:28:12.990Z,272
2019-03-02T16:29:26.384Z,232
2019-03-02T16:30:41.548Z,204
2019-03-02T16:31:52.574Z,184
2019-03-02T16:33:03.537Z,160
2019-03-02T16:34:17.357Z,144
2019-03-02T16:35:29.519Z,124
2019-03-02T16:36:48.686Z,112
2019-03-02T16:38:01.274Z,104